Time;durP1;ratioP1;P1;durP2;ratioP2;P2;SDS_P1;SDS_P2;PMS_P1;PMS_P2;Temp;Humidity;BMP_temperature;BMP_pressure;BME280_temperature;BME280_humidity;BME280_pressure;Samples;Min_cycle;Max_cycle;Signal;HPM_P1;HPM_P2
2024/01/21 00:02:11;;;;;;;11.93;7.50;;;;;;;-140.33;100.00;61596.09;5017637;28;20044;-71
2024/01/21 00:04:37;;;;;;;11.55;7.75;;;;;;;-140.33;100.00;61596.09;5015800;28;20038;-71
2024/01/21 00:07:02;;;;;;;10.73;7.18;;;;;;;-140.33;100.00;61596.09;4999860;28;20029;-73
2024/01/21 00:09:28;;;;;;;12.68;7.72;;;;;;;-140.33;100.00;61596.09;5014539;28;20129;-75
2024/01/21 00:11:54;;;;;;;11.65;7.45;;;;;;;-140.33;100.00;61596.09;5004633;28;20052;-71
2024/01/21 00:14:20;;;;;;;11.27;7.20;;;;;;;-140.33;100.00;61596.09;5008560;28;20029;-71
2024/01/21 00:16:45;;;;;;;14.40;7.60;;;;;;;-140.33;100.00;61596.09;5020101;28;20502;-70
2024/01/21 00:19:10;;;;;;;9.75;7.00;;;;;;;-140.33;100.00;61596.09;4997778;28;20042;-72
2024/01/21 00:21:36;;;;;;;10.60;6.75;;;;;;;-140.33;100.00;61596.09;5017202;28;20033;-71
2024/01/21 00:24:01;;;;;;;10.57;6.88;;;;;;;-140.33;100.00;61596.09;5018739;28;20034;-71
2024/01/21 00:26:27;;;;;;;10.70;7.00;;;;;;;-140.33;100.00;61596.09;5002412;28;20033;-71
2024/01/21 00:28:52;;;;;;;10.57;6.82;;;;;;;-140.33;100.00;61596.09;5000152;28;20025;-76
2024/01/21 00:31:18;;;;;;;9.73;6.97;;;;;;;-140.33;100.00;61596.09;5018696;28;20041;-70
2024/01/21 00:33:43;;;;;;;12.15;7.20;;;;;;;-140.33;100.00;61596.09;5020655;28;20037;-71
2024/01/21 00:36:11;;;;;;;13.15;7.70;;;;;;;-140.33;100.00;61596.09;5017754;28;20036;-71
2024/01/21 00:38:38;;;;;;;12.70;7.43;;;;;;;-140.33;100.00;61596.09;5016820;28;20029;-72
2024/01/21 00:41:05;;;;;;;10.48;6.82;;;;;;;-140.33;100.00;61596.09;5019154;28;20026;-71
2024/01/21 00:43:30;;;;;;;11.80;7.20;;;;;;;-140.33;100.00;61596.09;4997823;28;20062;-70
2024/01/21 00:45:56;;;;;;;12.20;7.13;;;;;;;-140.33;100.00;61596.09;5001278;28;20104;-74
2024/01/21 00:48:22;;;;;;;9.55;6.45;;;;;;;-140.33;100.00;61596.09;5018833;28;20033;-71
2024/01/21 00:50:47;;;;;;;11.10;6.55;;;;;;;-140.33;100.00;61596.09;5016492;28;20719;-71
2024/01/21 00:53:13;;;;;;;9.32;5.95;;;;;;;-140.33;100.00;61596.09;5016829;28;20049;-72
2024/01/21 00:55:38;;;;;;;8.35;5.95;;;;;;;-140.33;100.00;61596.09;5018101;28;20032;-71
2024/01/21 00:58:04;;;;;;;9.65;6.28;;;;;;;-140.33;100.00;61596.09;5014928;28;20045;-71
2024/01/21 01:00:29;;;;;;;9.07;5.63;;;;;;;-140.33;100.00;61596.09;5002399;28;20064;-71
2024/01/21 01:02:55;;;;;;;9.02;5.75;;;;;;;-140.33;100.00;61596.09;5001992;28;20419;-71
2024/01/21 01:05:20;;;;;;;7.53;5.68;;;;;;;-140.33;100.00;61596.09;4997190;28;20135;-70
2024/01/21 01:07:46;;;;;;;7.53;5.13;;;;;;;-140.33;100.00;61596.09;4997708;28;20038;-72
2024/01/21 01:10:12;;;;;;;8.60;5.68;;;;;;;-140.33;100.00;61596.09;5017739;28;20033;-70
2024/01/21 01:12:39;;;;;;;7.60;5.43;;;;;;;-140.33;100.00;61596.09;5014509;28;20034;-72
2024/01/21 01:15:05;;;;;;;7.07;5.03;;;;;;;-140.33;100.00;61596.09;5014891;28;20415;-71
2024/01/21 01:17:30;;;;;;;6.93;5.13;;;;;;;-140.33;100.00;61596.09;5015574;28;20053;-71
2024/01/21 01:19:56;;;;;;;8.10;5.18;;;;;;;-140.33;100.00;61596.09;5000345;28;20053;-71
2024/01/21 01:22:22;;;;;;;9.18;5.88;;;;;;;-140.33;100.00;61596.09;5017627;28;20029;-71
2024/01/21 01:24:47;;;;;;;8.55;5.63;;;;;;;-140.33;100.00;61596.09;5015538;28;20186;-70
2024/01/21 01:27:13;;;;;;;9.07;5.80;;;;;;;-140.33;100.00;61596.09;5017688;28;20529;-75
2024/01/21 01:29:38;;;;;;;10.48;6.80;;;;;;;-140.33;100.00;61596.09;5016608;28;20415;-72
2024/01/21 01:32:05;;;;;;;11.45;7.80;;;;;;;-140.33;100.00;61596.09;4997710;28;20084;-72
2024/01/21 01:34:30;;;;;;;20.73;12.43;;;;;;;-140.33;100.00;61596.09;4999287;28;20388;-71
2024/01/21 01:36:56;;;;;;;17.90;11.88;;;;;;;-140.33;100.00;61596.09;5019248;28;20032;-74
2024/01/21 01:39:22;;;;;;;18.77;12.95;;;;;;;-140.33;100.00;61596.09;4997308;28;20029;-70
2024/01/21 01:41:47;;;;;;;17.52;11.63;;;;;;;-140.33;100.00;61596.09;4999222;28;20029;-69
2024/01/21 01:44:13;;;;;;;14.48;10.27;;;;;;;-140.33;100.00;61596.09;5017738;28;20052;-72
2024/01/21 01:46:38;;;;;;;19.73;12.98;;;;;;;-140.33;100.00;61596.09;5016334;28;20080;-69
2024/01/21 01:49:04;;;;;;;19.98;12.07;;;;;;;-140.33;100.00;61596.09;5015561;28;20033;-72
2024/01/21 01:51:32;;;;;;;15.80;10.52;;;;;;;-140.33;100.00;61596.09;5018259;28;20496;-71
2024/01/21 01:53:58;;;;;;;15.10;9.95;;;;;;;-140.33;100.00;61596.09;5017997;28;20045;-70
2024/01/21 01:56:24;;;;;;;12.48;8.18;;;;;;;-140.33;100.00;61596.09;5017530;28;20068;-71
2024/01/21 01:58:51;;;;;;;12.40;8.10;;;;;;;-140.33;100.00;61596.09;5017834;28;20470;-71
2024/01/21 02:01:17;;;;;;;13.90;7.35;;;;;;;-140.33;100.00;61596.09;5015688;28;20026;-72
2024/01/21 02:03:42;;;;;;;9.60;6.53;;;;;;;-140.33;100.00;61596.09;5014802;28;20040;-71
2024/01/21 02:06:08;;;;;;;9.60;6.18;;;;;;;-140.33;100.00;61596.09;5018846;28;20057;-72
2024/01/21 02:08:33;;;;;;;8.77;5.88;;;;;;;-140.33;100.00;61596.09;5023364;28;20069;-71
2024/01/21 02:10:59;;;;;;;9.18;5.50;;;;;;;-140.33;100.00;61596.09;5022367;28;20033;-70
2024/01/21 02:13:27;;;;;;;9.82;5.85;;;;;;;-140.33;100.00;61596.09;5003049;28;20076;-72
2024/01/21 02:15:54;;;;;;;8.77;5.18;;;;;;;-140.33;100.00;61596.09;5017702;28;20140;-72
2024/01/21 02:18:21;;;;;;;9.00;5.90;;;;;;;-140.33;100.00;61596.09;5020671;28;20206;-71
2024/01/21 02:20:46;;;;;;;7.82;5.60;;;;;;;-140.33;100.00;61596.09;5017695;28;20034;-77
2024/01/21 02:23:12;;;;;;;8.23;5.57;;;;;;;-140.33;100.00;61596.09;5016449;28;20911;-77
2024/01/21 02:25:37;;;;;;;8.20;5.80;;;;;;;-140.33;100.00;61596.09;5016774;28;20061;-71
2024/01/21 02:28:03;;;;;;;9.65;5.70;;;;;;;-140.33;100.00;61596.09;5003432;28;20044;-70
2024/01/21 02:30:28;;;;;;;9.63;5.80;;;;;;;-140.33;100.00;61596.09;5015959;28;20435;-72
2024/01/21 02:32:54;;;;;;;8.52;5.90;;;;;;;-140.33;100.00;61596.09;5022595;28;20077;-69
2024/01/21 02:35:19;;;;;;;10.63;5.57;;;;;;;-140.33;100.00;61596.09;5022038;28;20033;-75
2024/01/21 02:37:53;;;;;;;8.85;5.57;;;;;;;-140.33;100.00;61596.09;5020436;28;20029;-71
2024/01/21 02:40:19;;;;;;;7.93;5.10;;;;;;;-140.33;100.00;61596.09;5019072;28;20462;-71
2024/01/21 02:42:45;;;;;;;8.75;5.43;;;;;;;-140.33;100.00;61596.09;5001874;28;20408;-70
2024/01/21 02:45:10;;;;;;;7.05;4.93;;;;;;;-140.33;100.00;61596.09;5018740;28;20033;-71
2024/01/21 02:47:36;;;;;;;6.82;4.90;;;;;;;-140.33;100.00;61596.09;5021224;28;20603;-73
2024/01/21 02:50:01;;;;;;;7.47;5.22;;;;;;;-140.33;100.00;61596.09;5020101;28;20033;-69
2024/01/21 02:52:29;;;;;;;9.68;5.68;;;;;;;-140.33;100.00;61596.09;5019888;28;20036;-72
2024/01/21 02:54:54;;;;;;;8.25;5.30;;;;;;;-140.33;100.00;61596.09;4988317;28;20503;-71
2024/01/21 02:57:20;;;;;;;7.07;5.28;;;;;;;-140.33;100.00;61596.09;4985312;28;20041;-70
2024/01/21 02:59:46;;;;;;;8.13;5.85;;;;;;;-140.33;100.00;61596.09;4997999;28;21549;-73
2024/01/21 03:02:11;;;;;;;14.68;8.45;;;;;;;-140.33;100.00;61596.09;5001269;28;20030;-70
2024/01/21 03:04:36;;;;;;;9.63;7.20;;;;;;;-140.33;100.00;61596.09;4998877;28;20038;-70
2024/01/21 03:07:02;;;;;;;10.70;6.80;;;;;;;-140.33;100.00;61596.09;4999007;28;20049;-70
2024/01/21 03:09:27;;;;;;;24.33;14.88;;;;;;;-140.33;100.00;61596.09;4984960;28;20484;-70
2024/01/21 03:11:56;;;;;;;33.42;17.30;;;;;;;-140.33;100.00;61596.09;5000734;28;20041;-72
2024/01/21 03:14:21;;;;;;;39.83;19.60;;;;;;;-140.33;100.00;61596.09;4984578;28;20068;-70
2024/01/21 03:16:47;;;;;;;32.38;17.55;;;;;;;-140.33;100.00;61596.09;4984505;28;20066;-72
2024/01/21 03:19:12;;;;;;;16.60;9.52;;;;;;;-140.33;100.00;61596.09;5000338;28;20105;-69
2024/01/21 03:21:38;;;;;;;9.02;5.63;;;;;;;-140.33;100.00;61596.09;5002648;28;20188;-72
2024/01/21 03:24:03;;;;;;;7.47;5.32;;;;;;;-140.33;100.00;61596.09;4998764;28;20080;-69
2024/01/21 03:26:29;;;;;;;7.55;5.10;;;;;;;-140.33;100.00;61596.09;5001617;28;20045;-69
2024/01/21 03:28:54;;;;;;;7.20;4.72;;;;;;;-140.33;100.00;61596.09;4981467;28;20034;-80
2024/01/21 03:31:20;;;;;;;6.10;4.20;;;;;;;-140.33;100.00;61596.09;4997468;28;20072;-69
2024/01/21 03:33:46;;;;;;;5.00;3.90;;;;;;;-140.33;100.00;61596.09;4985163;28;20026;-71
2024/01/21 03:36:11;;;;;;;6.18;4.22;;;;;;;-140.33;100.00;61596.09;5000632;28;20038;-72
2024/01/21 03:38:37;;;;;;;5.75;3.90;;;;;;;-140.33;100.00;61596.09;4981763;28;20030;-71
2024/01/21 03:41:03;;;;;;;5.25;3.80;;;;;;;-140.33;100.00;61596.09;4998723;28;20037;-71
2024/01/21 03:43:28;;;;;;;5.50;3.78;;;;;;;-140.33;100.00;61596.09;4998589;28;20092;-75
2024/01/21 03:45:54;;;;;;;5.00;3.42;;;;;;;-140.33;100.00;61596.09;4978724;28;20034;-76
2024/01/21 03:48:19;;;;;;;5.60;3.58;;;;;;;-140.33;100.00;61596.09;4981138;28;20416;-71
2024/01/21 03:50:45;;;;;;;5.53;3.83;;;;;;;-140.33;100.00;61596.09;4982489;28;20039;-72
2024/01/21 03:53:11;;;;;;;5.80;3.95;;;;;;;-140.33;100.00;61596.09;5006604;28;20044;-71
2024/01/21 03:55:36;;;;;;;7.63;4.50;;;;;;;-140.33;100.00;61596.09;4984990;28;20106;-72
2024/01/21 03:58:02;;;;;;;8.77;4.30;;;;;;;-140.33;100.00;61596.09;5004481;28;20086;-72
2024/01/21 04:00:27;;;;;;;6.28;4.95;;;;;;;-140.33;100.00;61596.09;5001896;28;20476;-76
2024/01/21 04:02:53;;;;;;;6.25;4.45;;;;;;;-140.33;100.00;61596.09;5003194;28;20037;-72
2024/01/21 04:05:18;;;;;;;8.18;4.65;;;;;;;-140.33;100.00;61596.09;5018802;28;20038;-73
2024/01/21 04:07:44;;;;;;;7.53;4.75;;;;;;;-140.33;100.00;61596.09;5014401;28;20033;-71
2024/01/21 04:10:11;;;;;;;7.28;4.78;;;;;;;-140.33;100.00;61596.09;5014239;28;20060;-71
2024/01/21 04:12:37;;;;;;;7.95;5.60;;;;;;;-140.33;100.00;61596.09;5014821;28;20040;-72
2024/01/21 04:15:03;;;;;;;7.28;4.90;;;;;;;-140.33;100.00;61596.09;5020855;28;20038;-70
2024/01/21 04:17:28;;;;;;;7.00;4.68;;;;;;;-140.33;100.00;61596.09;5017157;28;20033;-71
2024/01/21 04:19:54;;;;;;;9.43;5.25;;;;;;;-140.33;100.00;61596.09;4999979;28;20030;-73
2024/01/21 04:22:21;;;;;;;7.40;5.53;;;;;;;-140.33;100.00;61596.09;5020093;28;20093;-70
2024/01/21 04:24:47;;;;;;;6.97;5.03;;;;;;;-140.33;100.00;61596.09;5003251;28;20120;-72
2024/01/21 04:27:12;;;;;;;7.65;5.10;;;;;;;-140.33;100.00;61596.09;5004678;28;20168;-71
2024/01/21 04:29:38;;;;;;;6.38;4.57;;;;;;;-140.33;100.00;61596.09;4999210;28;22652;-71
2024/01/21 04:32:03;;;;;;;7.05;4.75;;;;;;;-140.33;100.00;61596.09;5018346;28;20068;-71
2024/01/21 04:34:29;;;;;;;6.55;4.78;;;;;;;-140.33;100.00;61596.09;5017812;28;20157;-75
2024/01/21 04:36:54;;;;;;;7.20;4.78;;;;;;;-140.33;100.00;61596.09;5018258;28;20485;-71
2024/01/21 04:39:21;;;;;;;5.88;4.43;;;;;;;-140.33;100.00;61596.09;5004559;28;20590;-73
2024/01/21 04:41:48;;;;;;;7.03;4.68;;;;;;;-140.33;100.00;61596.09;5018302;28;20033;-71
2024/01/21 04:44:13;;;;;;;7.28;4.90;;;;;;;-140.33;100.00;61596.09;5000380;28;20029;-76
2024/01/21 04:46:39;;;;;;;7.25;5.10;;;;;;;-140.33;100.00;61596.09;5021043;28;20454;-71
2024/01/21 04:49:04;;;;;;;7.30;5.50;;;;;;;-140.33;100.00;61596.09;5019521;28;20059;-72
2024/01/21 04:51:30;;;;;;;8.15;5.22;;;;;;;-140.33;100.00;61596.09;5016697;28;20033;-72
2024/01/21 04:53:55;;;;;;;7.90;5.20;;;;;;;-140.33;100.00;61596.09;5000776;28;20488;-72
2024/01/21 04:56:21;;;;;;;7.05;5.22;;;;;;;-140.33;100.00;61596.09;5002817;28;20057;-70
2024/01/21 04:58:46;;;;;;;9.25;5.65;;;;;;;-140.33;100.00;61596.09;5004157;28;20428;-72
2024/01/21 05:01:12;;;;;;;9.00;5.88;;;;;;;-140.33;100.00;61596.09;5000573;28;20116;-70
2024/01/21 05:03:38;;;;;;;9.38;5.80;;;;;;;-140.33;100.00;61596.09;5017424;28;20029;-72
2024/01/21 05:06:05;;;;;;;8.20;5.28;;;;;;;-140.33;100.00;61596.09;5017424;28;20025;-72
2024/01/21 05:08:30;;;;;;;8.75;5.88;;;;;;;-140.33;100.00;61596.09;5002035;28;20192;-71
2024/01/21 05:10:56;;;;;;;11.00;6.15;;;;;;;-140.33;100.00;61596.09;5016133;28;20032;-71
2024/01/21 05:13:21;;;;;;;10.48;6.18;;;;;;;-140.33;100.00;61596.09;5003828;28;20088;-71
2024/01/21 05:15:47;;;;;;;9.85;6.03;;;;;;;-140.33;100.00;61596.09;5007630;28;20025;-72
2024/01/21 05:18:12;;;;;;;8.93;5.53;;;;;;;-140.33;100.00;61596.09;5010380;28;20038;-71
2024/01/21 05:20:38;;;;;;;8.80;5.90;;;;;;;-140.33;100.00;61596.09;5017975;28;20427;-72
2024/01/21 05:23:04;;;;;;;9.60;5.80;;;;;;;-140.33;100.00;61596.09;5019396;28;20420;-70
2024/01/21 05:25:30;;;;;;;11.55;6.43;;;;;;;-140.33;100.00;61596.09;5008921;28;20026;-70
2024/01/21 05:27:57;;;;;;;11.07;6.72;;;;;;;-140.33;100.00;61596.09;5012480;28;20140;-70
2024/01/21 05:30:22;;;;;;;10.82;6.15;;;;;;;-140.33;100.00;61596.09;5020425;28;20033;-75
2024/01/21 05:32:50;;;;;;;7.88;5.47;;;;;;;-140.33;100.00;61596.09;5002159;28;20041;-73
2024/01/21 05:35:16;;;;;;;9.57;6.22;;;;;;;-140.33;100.00;61596.09;5003336;28;20175;-70
2024/01/21 05:37:42;;;;;;;7.50;4.72;;;;;;;-140.33;100.00;61596.09;5003493;28;20116;-70
2024/01/21 05:40:08;;;;;;;7.40;4.75;;;;;;;-140.33;100.00;61596.09;5015857;28;20038;-70
2024/01/21 05:42:34;;;;;;;8.27;5.03;;;;;;;-140.33;100.00;61596.09;5014343;28;20037;-70
2024/01/21 05:44:59;;;;;;;8.40;4.90;;;;;;;-140.33;100.00;61596.09;5017366;28;20030;-70
2024/01/21 05:47:24;;;;;;;6.18;4.40;;;;;;;-140.33;100.00;61596.09;5019556;28;20037;-74
2024/01/21 05:49:50;;;;;;;6.25;4.20;;;;;;;-140.33;100.00;61596.09;5015850;28;20048;-72
2024/01/21 05:52:15;;;;;;;6.32;4.50;;;;;;;-140.33;100.00;61596.09;5000779;28;20033;-69
2024/01/21 05:54:41;;;;;;;7.57;5.72;;;;;;;-140.33;100.00;61596.09;5001136;28;20192;-70
2024/01/21 05:57:07;;;;;;;8.18;5.95;;;;;;;-140.33;100.00;61596.09;5001018;28;20029;-70
2024/01/21 05:59:33;;;;;;;9.98;5.63;;;;;;;-140.33;100.00;61596.09;5017499;28;20076;-69
2024/01/21 06:01:58;;;;;;;7.97;5.00;;;;;;;-140.33;100.00;61596.09;5019060;28;20480;-70
2024/01/21 06:04:25;;;;;;;7.93;4.78;;;;;;;-140.33;100.00;61596.09;5003626;28;20033;-72
2024/01/21 06:06:51;;;;;;;8.90;5.95;;;;;;;-140.33;100.00;61596.09;5003722;28;20393;-69
2024/01/21 06:09:17;;;;;;;9.68;5.78;;;;;;;-140.33;100.00;61596.09;5000459;28;20045;-69
2024/01/21 06:11:44;;;;;;;8.10;5.28;;;;;;;-140.33;100.00;61596.09;5003154;28;20083;-69
2024/01/21 06:14:10;;;;;;;7.03;4.97;;;;;;;-140.33;100.00;61596.09;5002915;28;20033;-69
2024/01/21 06:16:38;;;;;;;7.60;5.43;;;;;;;-140.33;100.00;61596.09;4998488;28;20038;-73
2024/01/21 06:19:04;;;;;;;7.32;5.82;;;;;;;-140.33;100.00;61596.09;5017728;28;20030;-69
2024/01/21 06:21:30;;;;;;;11.43;5.57;;;;;;;-140.33;100.00;61596.09;5017968;28;20032;-72
2024/01/21 06:23:56;;;;;;;11.40;6.43;;;;;;;-140.33;100.00;61596.09;5001810;28;20116;-71
2024/01/21 06:26:22;;;;;;;10.52;5.70;;;;;;;-140.33;100.00;61596.09;5016801;28;20120;-69
2024/01/21 06:28:51;;;;;;;6.97;4.47;;;;;;;-140.33;100.00;61596.09;5001494;28;20030;-73
2024/01/21 06:31:17;;;;;;;5.78;3.72;;;;;;;-140.33;100.00;61596.09;5002708;28;20025;-70
2024/01/21 06:33:44;;;;;;;6.25;3.92;;;;;;;-140.33;100.00;61596.09;5001509;28;20552;-69
2024/01/21 06:36:09;;;;;;;7.28;4.38;;;;;;;-140.33;100.00;61596.09;5016314;28;20139;-69
2024/01/21 06:38:35;;;;;;;5.95;3.90;;;;;;;-140.33;100.00;61596.09;5014861;28;20042;-69
2024/01/21 06:41:01;;;;;;;6.68;4.70;;;;;;;-140.33;100.00;61596.09;5016279;28;20818;-77
2024/01/21 06:43:27;;;;;;;7.38;4.18;;;;;;;-140.33;100.00;61596.09;5002056;28;20021;-71
2024/01/21 06:45:52;;;;;;;5.97;3.67;;;;;;;-140.33;100.00;61596.09;4997877;28;20038;-73
2024/01/21 06:54:09;;;;;;;10.38;8.93;;;;;;;8.53;100.00;102629.81;5068512;27;20933;-72
2024/01/21 06:56:35;;;;;;;5.30;3.90;;;;;;;6.55;100.00;102557.78;5071536;28;20107;-71
2024/01/21 06:59:00;;;;;;;7.80;5.10;;;;;;;7.01;100.00;102566.75;5067224;28;20537;-72
2024/01/21 07:01:25;;;;;;;6.50;4.05;;;;;;;5.57;100.00;102595.78;5067851;28;20039;-72
2024/01/21 07:03:52;;;;;;;7.53;4.22;;;;;;;6.07;100.00;102504.97;5068161;28;20032;-71
2024/01/21 07:06:17;;;;;;;6.28;4.00;;;;;;;5.80;100.00;102521.72;5069732;28;20067;-72
2024/01/21 07:08:43;;;;;;;5.18;3.75;;;;;;;7.50;100.00;102368.16;5068031;28;20113;-71
2024/01/21 07:11:09;;;;;;;6.18;4.47;;;;;;;6.25;100.00;102322.81;5066475;28;20426;-72
2024/01/21 07:13:34;;;;;;;6.10;4.43;;;;;;;8.83;100.00;102095.34;5067404;28;20048;-71
2024/01/21 07:16:00;;;;;;;5.13;4.13;;;;;;;8.22;100.00;102245.56;5070485;28;20043;-74
2024/01/21 07:18:25;;;;;;;6.18;4.20;;;;;;;6.11;100.00;102137.25;5066748;28;20048;-71
2024/01/21 07:20:51;;;;;;;6.15;3.38;;;;;;;3.98;100.00;101808.03;5067693;28;20043;-72
2024/01/21 07:23:16;;;;;;;5.32;3.83;;;;;;;4.92;100.00;101396.50;5068769;28;20142;-73
2024/01/21 07:25:42;;;;;;;5.97;4.10;;;;;;;4.99;100.00;101236.22;5066375;28;20029;-72
2024/01/21 07:28:07;;;;;;;6.93;4.05;;;;;;;4.69;100.00;100957.06;5069461;28;20037;-72
2024/01/21 07:30:33;;;;;;;14.95;6.88;;;;;;;3.59;100.00;100751.91;5067565;28;20036;-75
2024/01/21 07:32:58;;;;;;;15.75;7.82;;;;;;;4.21;100.00;100375.25;5069389;28;20033;-71
2024/01/21 07:35:24;;;;;;;9.43;5.15;;;;;;;3.11;100.00;100294.22;5069870;28;20483;-70
2024/01/21 07:37:49;;;;;;;6.93;3.90;;;;;;;4.62;100.00;100219.28;5064138;28;20467;-72
2024/01/21 07:40:15;;;;;;;4.85;3.00;;;;;;;3.86;100.00;100220.88;5067657;28;20032;-71
2024/01/21 07:42:40;;;;;;;7.32;3.83;;;;;;;3.68;100.00;100152.97;5071275;28;20040;-70
2024/01/21 07:45:06;;;;;;;7.30;4.70;;;;;;;4.00;100.00;99918.31;5071039;28;20072;-71
2024/01/21 07:47:39;;;;;;;11.63;5.95;;;;;;;4.17;100.00;99919.09;5066050;28;20437;-71
2024/01/21 07:50:05;;;;;;;10.18;5.05;;;;;;;3.94;100.00;99903.22;5068377;28;20032;-71
2024/01/21 07:52:31;;;;;;;11.20;6.07;;;;;;;3.06;100.00;99721.72;5067475;28;20064;-71
2024/01/21 07:54:57;;;;;;;10.63;6.40;;;;;;;4.51;100.00;99669.81;5066951;28;20039;-70
2024/01/21 07:57:22;;;;;;;13.45;7.93;;;;;;;3.68;100.00;99706.44;5066092;28;20040;-72
2024/01/21 07:59:48;;;;;;;13.45;7.18;;;;;;;3.64;100.00;99447.66;5067928;28;21847;-72
2024/01/21 08:02:13;;;;;;;9.27;6.22;;;;;;;3.46;100.00;99497.22;5067350;28;20457;-72
2024/01/21 08:04:39;;;;;;;7.13;4.20;;;;;;;4.12;100.00;99425.34;5057506;28;20033;-71
2024/01/21 08:07:04;;;;;;;6.28;4.00;;;;;;;3.98;100.00;99271.31;5058568;28;20036;-79
2024/01/21 08:09:30;;;;;;;5.45;3.22;;;;;;;3.93;100.00;99156.59;5065760;28;20506;-72
2024/01/21 08:11:55;;;;;;;4.93;3.30;;;;;;;4.49;100.00;99297.44;5053888;28;20048;-71
2024/01/21 08:14:21;;;;;;;6.43;3.70;;;;;;;4.75;100.00;99244.19;5057820;28;20036;-71
2024/01/21 08:16:47;;;;;;;6.13;3.70;;;;;;;4.38;100.00;99217.09;5057467;28;20029;-72
2024/01/21 08:19:12;;;;;;;6.68;4.03;;;;;;;3.50;100.00;99061.75;5056756;28;20502;-71
2024/01/21 08:21:38;;;;;;;6.53;4.07;;;;;;;3.02;100.00;98921.88;5054632;28;20025;-73
2024/01/21 08:24:04;;;;;;;4.70;3.10;;;;;;;4.31;100.00;98897.78;5055258;28;20055;-74
2024/01/21 08:26:29;;;;;;;3.70;2.92;;;;;;;4.38;100.00;98786.94;5054347;28;20482;-72
2024/01/21 08:28:58;;;;;;;4.20;2.75;;;;;;;4.98;100.00;98462.38;5058743;28;20027;-73
2024/01/21 08:31:23;;;;;;;5.28;3.28;;;;;;;3.61;100.00;98578.41;5062504;28;20901;-72
2024/01/21 08:33:49;;;;;;;8.80;3.97;;;;;;;4.05;100.00;98708.91;5061990;28;20036;-73
2024/01/21 08:36:14;;;;;;;6.00;3.30;;;;;;;4.34;100.00;98588.34;5059670;28;20033;-74
2024/01/21 08:38:40;;;;;;;5.40;3.47;;;;;;;4.16;100.00;98561.97;5060427;28;20501;-74
2024/01/21 08:41:05;;;;;;;4.13;2.67;;;;;;;3.04;100.00;98438.28;5061505;28;20033;-73
2024/01/21 08:43:31;;;;;;;3.20;2.20;;;;;;;3.30;100.00;98441.03;5062058;28;20032;-72
2024/01/21 08:45:56;;;;;;;3.20;2.03;;;;;;;3.72;100.00;98513.69;5063678;28;20032;-73
2024/01/21 08:48:21;;;;;;;3.92;2.15;;;;;;;3.80;100.00;98505.09;5058252;28;20433;-73
2024/01/21 08:50:47;;;;;;;4.47;2.38;;;;;;;2.88;100.00;98303.19;5065367;28;21052;-74
2024/01/21 08:53:13;;;;;;;3.08;2.13;;;;;;;3.76;100.00;98377.06;5062501;28;20123;-74
2024/01/21 08:55:38;;;;;;;2.47;1.90;;;;;;;3.70;100.00;98337.88;5063277;28;20120;-74
2024/01/21 08:58:04;;;;;;;3.85;2.45;;;;;;;3.68;100.00;98301.09;5065209;28;20043;-75
2024/01/21 09:00:29;;;;;;;3.88;2.60;;;;;;;3.48;100.00;98254.75;5056233;28;20410;-73
2024/01/21 09:02:55;;;;;;;6.40;4.57;;;;;;;2.93;100.00;98030.47;5058225;28;20062;-72
2024/01/21 09:05:20;;;;;;;7.85;5.05;;;;;;;3.45;100.00;98020.47;5062708;28;20051;-70
2024/01/21 09:07:46;;;;;;;11.07;7.13;;;;;;;3.11;100.00;97988.06;5059914;28;20582;-71
2024/01/21 09:10:12;;;;;;;11.88;8.93;;;;;;;4.00;100.00;98017.00;5060925;28;20029;-72
2024/01/21 09:12:38;;;;;;;17.40;12.82;;;;;;;3.45;100.00;98045.56;5056231;28;20467;-73
2024/01/21 09:15:05;;;;;;;30.55;18.90;;;;;;;2.64;100.00;97994.50;5059097;28;20028;-72
2024/01/21 09:17:30;;;;;;;27.25;17.70;;;;;;;1.46;100.00;97953.44;5061668;28;20040;-73
2024/01/21 09:19:56;;;;;;;24.17;16.65;;;;;;;2.49;100.00;97906.38;5057026;28;20031;-72
2024/01/21 09:22:21;;;;;;;18.98;13.00;;;;;;;0.73;100.00;97810.16;5055868;28;20033;-74
2024/01/21 09:24:47;;;;;;;17.95;12.10;;;;;;;2.47;100.00;97888.03;5057304;28;20041;-73
2024/01/21 09:27:13;;;;;;;17.05;12.18;;;;;;;2.12;100.00;97970.91;5060874;28;20499;-72
2024/01/21 09:29:39;;;;;;;17.48;12.52;;;;;;;1.09;100.00;97698.38;5054427;28;20108;-73
2024/01/21 09:32:05;;;;;;;15.73;11.05;;;;;;;2.67;100.00;97928.38;5060970;28;20123;-72
2024/01/21 09:34:30;;;;;;;15.20;10.15;;;;;;;2.13;100.00;97884.84;5057880;28;20025;-71
2024/01/21 09:36:56;;;;;;;15.27;10.32;;;;;;;2.41;100.00;98079.56;5060458;28;20414;-71
2024/01/21 09:39:21;;;;;;;14.23;10.30;;;;;;;1.11;100.00;97960.97;5061670;28;20036;-72
2024/01/21 09:41:51;;;;;;;16.45;11.73;;;;;;;2.38;100.00;98187.41;5058077;28;20036;-72
2024/01/21 09:44:24;;;;;;;16.40;11.48;;;;;;;2.29;100.00;98204.34;5059079;28;20052;-72
2024/01/21 09:46:52;;;;;;;22.40;13.68;;;;;;;1.30;100.00;98080.59;5063373;28;20024;-72
2024/01/21 09:49:20;;;;;;;29.73;17.58;;;;;;;1.86;100.00;98038.41;5060616;28;20887;-73
2024/01/21 09:51:47;;;;;;;20.08;13.63;;;;;;;2.85;100.00;98155.28;5058658;28;20024;-73
2024/01/21 09:54:13;;;;;;;16.00;11.32;;;;;;;2.24;100.00;98397.41;5058109;28;20041;-73
2024/01/21 09:56:40;;;;;;;19.38;13.35;;;;;;;1.65;100.00;98123.19;5059733;28;20033;-73
2024/01/21 09:59:08;;;;;;;18.88;12.85;;;;;;;1.74;100.00;98295.72;5062720;28;20067;-74
2024/01/21 10:01:36;;;;;;;23.02;15.48;;;;;;;2.73;100.00;98298.56;5060822;28;20107;-73
2024/01/21 10:04:02;;;;;;;21.17;14.50;;;;;;;2.63;100.00;98506.09;5059425;28;20514;-73
2024/01/21 10:06:28;;;;;;;20.77;12.95;;;;;;;3.01;100.00;98397.41;5055448;28;20104;-74
2024/01/21 10:09:09;;;;;;;15.48;11.82;;;;;;;2.26;100.00;98295.44;5058384;28;20035;-73
2024/01/21 10:11:35;;;;;;;28.02;17.42;;;;;;;2.91;100.00;98385.94;5057199;28;20407;-73
2024/01/21 10:14:00;;;;;;;33.22;22.70;;;;;;;3.12;100.00;98423.88;5059404;28;20101;-73
2024/01/21 10:16:26;;;;;;;33.80;25.60;;;;;;;2.85;100.00;98290.75;5054888;28;20112;-75
2024/01/21 10:18:51;;;;;;;24.27;17.33;;;;;;;3.55;100.00;98330.72;5057760;28;20029;-74
2024/01/21 10:21:19;;;;;;;29.20;17.25;;;;;;;2.81;100.00;98384.50;5060097;28;20491;-73
2024/01/21 10:23:46;;;;;;;19.42;12.25;;;;;;;2.75;100.00;98301.84;5054115;28;20035;-75
2024/01/21 10:26:12;;;;;;;18.73;11.35;;;;;;;3.75;100.00;98376.25;5060508;28;20090;-74
2024/01/21 10:28:39;;;;;;;17.77;11.10;;;;;;;2.82;100.00;98261.53;5057873;28;20029;-73
2024/01/21 10:31:06;;;;;;;14.55;10.00;;;;;;;3.91;100.00;98374.97;5051640;28;20036;-73
2024/01/21 10:33:32;;;;;;;21.77;14.00;;;;;;;2.93;100.00;98299.69;5058794;28;20044;-74
2024/01/21 10:36:01;;;;;;;16.05;9.88;;;;;;;3.86;100.00;98411.97;5056677;28;20032;-73
2024/01/21 10:38:29;;;;;;;13.57;9.70;;;;;;;3.82;100.00;98587.97;5055224;28;20032;-74
2024/01/21 10:40:56;;;;;;;15.00;10.80;;;;;;;3.86;100.00;98715.22;5058325;28;20158;-73
2024/01/21 10:43:22;;;;;;;16.27;12.00;;;;;;;3.62;100.00;98729.13;5058417;28;20093;-74
2024/01/21 10:45:49;;;;;;;14.05;10.75;;;;;;;2.94;100.00;98710.34;5071356;28;20090;-74
2024/01/21 10:48:16;;;;;;;16.70;11.95;;;;;;;2.91;100.00;98742.22;5063283;28;20029;-75
2024/01/21 10:50:44;;;;;;;15.23;11.32;;;;;;;3.09;100.00;98750.22;5060058;28;20040;-73
2024/01/21 10:53:16;;;;;;;14.73;10.05;;;;;;;3.78;100.00;98855.28;5058214;28;20063;-74
2024/01/21 10:55:42;;;;;;;17.58;12.38;;;;;;;3.86;100.00;98913.75;5053308;28;20495;-74
2024/01/21 10:58:08;;;;;;;17.90;11.98;;;;;;;3.98;100.00;98918.56;5058341;28;20121;-73
2024/01/21 11:00:35;;;;;;;12.93;9.57;;;;;;;3.10;100.00;98696.66;5058120;28;20041;-74
2024/01/21 11:03:27;;;;;;;12.77;9.90;;;;;;;3.96;100.00;98926.09;5050656;28;20047;-75
2024/01/21 11:06:00;;;;;;;12.35;8.95;;;;;;;4.03;100.00;98856.44;5062333;28;20513;-74
2024/01/21 11:08:26;;;;;;;13.55;9.65;;;;;;;3.47;100.00;98750.34;5055408;28;20037;-74
2024/01/21 11:11:16;;;;;;;13.52;9.93;;;;;;;4.46;100.00;98916.75;5052847;28;20143;-74
2024/01/21 11:13:46;;;;;;;21.60;12.57;;;;;;;3.28;100.00;98816.00;5060528;28;20040;-73
2024/01/21 11:16:30;;;;;;;17.25;11.75;;;;;;;3.83;100.00;98800.72;5061188;28;20486;-74